Time;durP1;ratioP1;P1;durP2;ratioP2;P2;SDS_P1;SDS_P2;PMS_P1;PMS_P2;Temp;Humidity;BMP_temperature;BMP_pressure;BME280_temperature;BME280_humidity;BME280_pressure;Samples;Min_cycle;Max_cycle;Signal;HPM_P1;HPM_P2
2024/01/15 00:01:50;;;;;;;1999.90;999.90;;;4.00;99.90;;;;;;5073252;28;20107;-76
2024/01/15 00:04:16;;;;;;;1999.90;999.90;;;4.00;99.90;;;;;;5073280;28;20048;-75
2024/01/15 00:06:41;;;;;;;1999.90;999.90;;;4.00;99.90;;;;;;5073339;28;20028;-76
2024/01/15 00:09:07;;;;;;;1999.90;999.90;;;4.00;99.90;;;;;;5073443;28;20024;-75
2024/01/15 00:11:33;;;;;;;1999.90;999.90;;;4.00;99.90;;;;;;5076773;28;20020;-75
2024/01/15 00:13:59;;;;;;;1999.90;999.90;;;4.10;99.90;;;;;;5080653;28;20031;-75
2024/01/15 00:16:24;;;;;;;1999.90;999.90;;;4.00;99.90;;;;;;5073702;28;20109;-76
2024/01/15 00:18:50;;;;;;;1999.90;999.90;;;4.00;99.90;;;;;;5072839;28;20059;-76
2024/01/15 00:21:16;;;;;;;1999.90;999.90;;;4.00;99.90;;;;;;5072999;28;20547;-76
2024/01/15 00:23:45;;;;;;;1999.90;999.90;;;4.00;99.90;;;;;;5073195;28;20035;-75
2024/01/15 00:26:11;;;;;;;1999.90;999.90;;;4.00;99.90;;;;;;5072826;28;20506;-75
2024/01/15 00:28:37;;;;;;;1999.90;999.90;;;4.00;99.90;;;;;;5073141;28;20085;-75
2024/01/15 00:31:04;;;;;;;1999.90;999.90;;;4.00;99.90;;;;;;5072857;28;20747;-75
2024/01/15 00:33:30;;;;;;;1999.90;999.90;;;4.00;99.90;;;;;;5072799;28;20024;-76
2024/01/15 00:35:56;;;;;;;1999.90;999.90;;;4.00;99.90;;;;;;5072901;28;20027;-75
2024/01/15 00:38:21;;;;;;;1999.90;999.90;;;4.00;99.90;;;;;;5054015;28;20071;-75
2024/01/15 00:40:47;;;;;;;1999.90;999.90;;;4.00;99.90;;;;;;5054914;28;20043;-75
2024/01/15 00:43:13;;;;;;;1999.90;999.90;;;4.00;99.90;;;;;;5072941;28;20021;-75
2024/01/15 00:45:38;;;;;;;1999.90;999.90;;;4.00;99.90;;;;;;5072833;28;20033;-76
2024/01/15 00:48:04;;;;;;;1999.90;999.90;;;4.00;99.90;;;;;;5072565;28;20108;-76
2024/01/15 00:50:30;;;;;;;1999.90;999.90;;;4.00;99.90;;;;;;5072444;28;20377;-76
2024/01/15 00:52:55;;;;;;;1999.90;999.90;;;4.00;99.90;;;;;;5073119;28;20107;-75
2024/01/15 00:55:21;;;;;;;1999.90;999.90;;;4.00;99.90;;;;;;5071760;28;20039;-75
2024/01/15 00:57:47;;;;;;;1999.90;999.90;;;4.00;99.90;;;;;;5072977;28;20021;-76
2024/01/15 01:00:13;;;;;;;1999.90;999.90;;;4.10;99.90;;;;;;5072700;28;20460;-76
2024/01/15 01:02:38;;;;;;;1999.90;999.90;;;4.00;99.90;;;;;;5072800;28;20082;-75
2024/01/15 01:05:04;;;;;;;1999.90;999.90;;;4.00;99.90;;;;;;5072512;28;20057;-75
2024/01/15 01:07:30;;;;;;;1999.90;999.90;;;4.00;99.90;;;;;;5072824;28;20017;-75
2024/01/15 01:09:56;;;;;;;1999.90;999.90;;;3.90;99.90;;;;;;5072722;28;20039;-76
2024/01/15 01:12:21;;;;;;;1999.90;999.90;;;3.90;99.90;;;;;;5081376;28;20033;-75
2024/01/15 01:14:47;;;;;;;1999.90;999.90;;;3.90;99.90;;;;;;5075753;28;20051;-75
2024/01/15 01:17:13;;;;;;;1999.90;999.90;;;3.90;99.90;;;;;;5073119;28;20020;-75
2024/01/15 01:19:38;;;;;;;1999.90;999.90;;;3.90;99.90;;;;;;5072758;28;20400;-75
2024/01/15 01:22:05;;;;;;;1999.90;999.90;;;3.90;99.90;;;;;;5072583;28;20129;-75
2024/01/15 01:24:30;;;;;;;1999.90;999.90;;;3.90;99.90;;;;;;5072340;28;20033;-75
2024/01/15 01:26:56;;;;;;;1999.90;999.90;;;3.90;99.90;;;;;;5072296;28;20027;-76
2024/01/15 01:29:22;;;;;;;1999.90;999.90;;;3.90;99.90;;;;;;5072370;28;20086;-75
2024/01/15 01:31:48;;;;;;;1999.90;999.90;;;3.90;99.90;;;;;;5072482;28;20013;-75
2024/01/15 01:34:15;;;;;;;1999.90;999.90;;;3.90;99.90;;;;;;5072433;28;20028;-75
2024/01/15 01:36:42;;;;;;;1999.90;999.90;;;3.90;99.90;;;;;;5054528;28;20058;-76
2024/01/15 01:39:08;;;;;;;1999.90;999.90;;;3.90;99.90;;;;;;5072524;28;20017;-75
2024/01/15 01:41:33;;;;;;;1999.90;999.90;;;3.90;99.90;;;;;;5071929;28;20038;-76
2024/01/15 01:43:59;;;;;;;1999.90;999.90;;;4.00;99.90;;;;;;5072758;28;20060;-76
2024/01/15 01:46:26;;;;;;;1999.90;999.90;;;4.00;99.90;;;;;;5072351;28;20028;-75
2024/01/15 01:48:54;;;;;;;1999.90;999.90;;;4.00;99.90;;;;;;5072294;28;20103;-76
2024/01/15 01:51:22;;;;;;;1999.90;999.90;;;4.00;99.90;;;;;;5075077;28;20032;-75
2024/01/15 01:53:49;;;;;;;1999.90;999.90;;;4.00;99.90;;;;;;5075834;28;20024;-75
2024/01/15 01:56:15;;;;;;;1999.90;999.90;;;4.00;99.90;;;;;;5075975;28;20471;-75
2024/01/15 01:58:41;;;;;;;1999.90;999.90;;;4.10;99.90;;;;;;5075799;28;20055;-76
2024/01/15 02:01:07;;;;;;;1999.90;999.90;;;4.00;99.90;;;;;;5075666;28;20060;-75
2024/01/15 02:03:33;;;;;;;1999.90;999.90;;;4.00;99.90;;;;;;5075885;28;20067;-76
2024/01/15 02:06:00;;;;;;;1999.90;999.90;;;4.10;99.90;;;;;;5057586;28;20093;-76
2024/01/15 02:08:26;;;;;;;1999.90;999.90;;;4.10;99.90;;;;;;5075433;28;20028;-75
2024/01/15 02:10:52;;;;;;;1999.90;999.90;;;4.00;99.90;;;;;;5076574;28;20033;-76
2024/01/15 02:13:18;;;;;;;1999.90;999.90;;;4.10;99.90;;;;;;5086526;28;20066;-75
2024/01/15 02:15:44;;;;;;;1999.90;999.90;;;4.10;99.90;;;;;;5075274;28;20372;-75
2024/01/15 02:18:10;;;;;;;1999.90;999.90;;;4.10;99.90;;;;;;5075442;28;20028;-75
2024/01/15 02:20:36;;;;;;;1999.90;999.90;;;4.10;99.90;;;;;;5057399;28;20028;-75
2024/01/15 02:23:14;;;;;;;1999.90;999.90;;;4.00;99.90;;;;;;5075450;28;20048;-75
2024/01/15 02:25:45;;;;;;;1999.90;999.90;;;4.10;99.90;;;;;;5075340;28;20077;-76
2024/01/15 02:28:12;;;;;;;1999.90;999.90;;;4.10;99.90;;;;;;5075481;28;20021;-75
2024/01/15 02:30:39;;;;;;;1999.90;999.90;;;4.00;99.90;;;;;;5075141;28;20029;-75
2024/01/15 02:33:06;;;;;;;1999.90;999.90;;;4.00;99.90;;;;;;5075100;28;20115;-76
2024/01/15 02:35:31;;;;;;;1999.90;999.90;;;4.00;99.90;;;;;;5075322;28;20025;-75
2024/01/15 02:37:57;;;;;;;1999.90;999.90;;;4.00;99.90;;;;;;5075064;28;20025;-76
2024/01/15 02:40:23;;;;;;;1999.90;999.90;;;4.00;99.90;;;;;;5074882;28;20510;-75
2024/01/15 02:42:48;;;;;;;1999.90;999.90;;;4.00;99.90;;;;;;5074804;28;20051;-76
2024/01/15 02:45:14;;;;;;;1999.90;999.90;;;4.00;99.90;;;;;;5056899;28;20116;-77
2024/01/15 02:47:40;;;;;;;1999.90;999.90;;;4.00;99.90;;;;;;5075013;28;20048;-76
2024/01/15 02:50:06;;;;;;;1999.90;999.90;;;4.00;99.90;;;;;;5074545;28;20442;-75
2024/01/15 02:52:32;;;;;;;1999.90;999.90;;;4.00;99.90;;;;;;5056682;28;20376;-75
2024/01/15 02:54:57;;;;;;;1999.90;999.90;;;4.00;99.90;;;;;;5074659;28;20100;-76
2024/01/15 02:57:23;;;;;;;1999.90;999.90;;;4.00;99.90;;;;;;5074770;28;20414;-75
2024/01/15 02:59:49;;;;;;;1999.90;999.90;;;4.00;99.90;;;;;;5074517;28;20488;-75
2024/01/15 03:02:14;;;;;;;1999.90;999.90;;;4.00;99.90;;;;;;5055199;28;20029;-75
2024/01/15 03:04:44;;;;;;;1999.90;999.90;;;4.00;99.90;;;;;;5074493;28;20058;-75
2024/01/15 03:07:09;;;;;;;1999.90;999.90;;;4.00;99.90;;;;;;5074708;28;20102;-75
2024/01/15 03:09:35;;;;;;;1999.90;999.90;;;4.10;99.90;;;;;;5056141;28;20437;-77
2024/01/15 03:12:01;;;;;;;1999.90;999.90;;;4.00;99.90;;;;;;5079842;28;20025;-75
2024/01/15 03:14:26;;;;;;;1999.90;999.90;;;4.00;99.90;;;;;;5080324;28;20035;-75
2024/01/15 03:16:53;;;;;;;1999.90;999.90;;;4.00;99.90;;;;;;5073426;28;20537;-75
2024/01/15 03:19:19;;;;;;;1999.90;999.90;;;4.00;99.90;;;;;;5074213;28;20108;-75
2024/01/15 03:21:44;;;;;;;1999.90;999.90;;;4.00;99.90;;;;;;5074206;28;20059;-76
2024/01/15 03:24:10;;;;;;;1999.90;999.90;;;4.00;99.90;;;;;;5074271;28;20064;-76
2024/01/15 03:26:35;;;;;;;1999.90;999.90;;;4.00;99.90;;;;;;5073753;28;20054;-76
2024/01/15 03:29:01;;;;;;;1999.90;999.90;;;4.00;99.90;;;;;;5074444;28;20038;-76
2024/01/15 03:31:27;;;;;;;1999.90;999.90;;;3.90;99.90;;;;;;5073880;28;20031;-76
2024/01/15 03:33:52;;;;;;;1999.90;999.90;;;4.00;99.90;;;;;;5055897;28;20056;-76
2024/01/15 03:36:18;;;;;;;1999.90;999.90;;;3.90;99.90;;;;;;5073765;28;20020;-76
2024/01/15 03:38:44;;;;;;;1999.90;999.90;;;3.90;99.90;;;;;;5073595;28;20098;-76
2024/01/15 03:41:09;;;;;;;1999.90;999.90;;;3.90;99.90;;;;;;5073963;28;20035;-76
2024/01/15 03:43:35;;;;;;;1999.90;999.90;;;3.90;99.90;;;;;;5055148;28;20040;-76
2024/01/15 03:46:01;;;;;;;1999.90;999.90;;;3.90;99.90;;;;;;5073734;28;20024;-76
2024/01/15 03:48:27;;;;;;;1999.90;999.90;;;4.00;99.90;;;;;;5073530;28;20027;-75
2024/01/15 03:50:53;;;;;;;1999.90;999.90;;;4.00;99.90;;;;;;5073585;28;20429;-75
2024/01/15 03:53:19;;;;;;;1999.90;999.90;;;4.00;99.90;;;;;;5073396;28;20024;-76
2024/01/15 03:55:44;;;;;;;1999.90;999.90;;;4.00;99.90;;;;;;5073443;28;20058;-76
2024/01/15 03:58:10;;;;;;;1999.90;999.90;;;4.00;99.90;;;;;;5073310;28;20181;-76
2024/01/15 04:00:35;;;;;;;1999.90;999.90;;;4.10;99.90;;;;;;5072405;28;20028;-76
2024/01/15 04:03:01;;;;;;;1999.90;999.90;;;4.00;99.90;;;;;;5073193;28;20040;-76
2024/01/15 04:05:27;;;;;;;1999.90;999.90;;;4.00;99.90;;;;;;5073162;28;20045;-76
2024/01/15 04:07:52;;;;;;;1999.90;999.90;;;4.00;99.90;;;;;;5073034;28;20101;-76
2024/01/15 04:10:18;;;;;;;1999.90;999.90;;;4.10;99.90;;;;;;5072964;28;20055;-76
2024/01/15 04:12:46;;;;;;;1999.90;999.90;;;4.10;99.90;;;;;;5084497;28;20028;-76
2024/01/15 04:15:12;;;;;;;1999.90;999.90;;;4.10;99.90;;;;;;5055466;28;20388;-76
2024/01/15 04:17:38;;;;;;;1999.90;999.90;;;4.10;99.90;;;;;;5073150;28;20048;-76
2024/01/15 04:20:04;;;;;;;1999.90;999.90;;;4.10;99.90;;;;;;5073128;28;20068;-76
2024/01/15 04:22:29;;;;;;;1999.90;999.90;;;4.20;99.90;;;;;;5072880;28;20499;-76
2024/01/15 04:24:55;;;;;;;1999.90;999.90;;;4.10;99.90;;;;;;5073117;28;20070;-76
2024/01/15 04:27:21;;;;;;;1999.90;999.90;;;4.10;99.90;;;;;;5073082;28;20103;-76
2024/01/15 04:29:46;;;;;;;1999.90;999.90;;;4.10;99.90;;;;;;5054976;28;20036;-76
2024/01/15 04:32:12;;;;;;;1999.90;999.90;;;4.10;99.90;;;;;;5072672;28;20589;-77
2024/01/15 04:34:38;;;;;;;1999.90;999.90;;;4.10;99.90;;;;;;5072781;28;20535;-76
2024/01/15 04:37:03;;;;;;;1999.90;999.90;;;4.10;99.90;;;;;;5072831;28;20408;-76
2024/01/15 04:39:29;;;;;;;1999.90;999.90;;;4.20;99.90;;;;;;5072966;28;20033;-76
2024/01/15 04:41:55;;;;;;;1999.90;999.90;;;4.20;99.90;;;;;;5072993;28;20560;-76
2024/01/15 04:44:20;;;;;;;1999.90;999.90;;;4.20;99.90;;;;;;5072578;28;20483;-76
2024/01/15 04:46:46;;;;;;;1999.90;999.90;;;4.20;99.90;;;;;;5072726;28;20028;-76
2024/01/15 04:49:12;;;;;;;1999.90;999.90;;;4.20;99.90;;;;;;5072610;28;20051;-76
2024/01/15 04:51:37;;;;;;;1999.90;999.90;;;4.30;99.90;;;;;;5072806;28;20368;-76
2024/01/15 04:54:03;;;;;;;1999.90;999.90;;;4.20;99.90;;;;;;5072730;28;20028;-76
2024/01/15 04:56:29;;;;;;;1999.90;999.90;;;4.30;99.90;;;;;;5072642;28;20506;-76
2024/01/15 04:58:55;;;;;;;1999.90;999.90;;;4.30;99.90;;;;;;5072479;28;20029;-77
2024/01/15 05:01:20;;;;;;;1999.90;999.90;;;4.40;99.90;;;;;;5072435;28;20074;-76
2024/01/15 05:03:46;;;;;;;1999.90;999.90;;;4.40;99.90;;;;;;5072295;28;20033;-77
2024/01/15 05:06:12;;;;;;;1999.90;999.90;;;4.40;99.90;;;;;;5072549;28;20032;-76
2024/01/15 05:08:38;;;;;;;1999.90;999.90;;;4.40;99.90;;;;;;5072257;28;20470;-76
2024/01/15 05:11:03;;;;;;;1999.90;999.90;;;4.40;99.90;;;;;;5074634;28;20024;-77
2024/01/15 05:13:29;;;;;;;1999.90;999.90;;;4.40;99.90;;;;;;5082768;28;20025;-77
2024/01/15 05:15:55;;;;;;;1999.90;999.90;;;4.40;99.90;;;;;;5072653;28;20050;-77
2024/01/15 05:18:20;;;;;;;1999.90;999.90;;;4.40;99.90;;;;;;5072408;28;20031;-76
2024/01/15 05:20:46;;;;;;;1999.90;999.90;;;4.40;99.90;;;;;;5072520;28;20028;-76
2024/01/15 05:23:12;;;;;;;1999.90;999.90;;;4.40;99.90;;;;;;5072297;28;20028;-76
2024/01/15 05:25:37;;;;;;;1999.90;999.90;;;4.40;99.90;;;;;;5074279;28;20024;-76
2024/01/15 05:28:03;;;;;;;1999.90;999.90;;;4.40;99.90;;;;;;5076152;28;20060;-76
2024/01/15 05:30:29;;;;;;;1999.90;999.90;;;4.30;99.90;;;;;;5075530;28;20039;-76
2024/01/15 05:32:54;;;;;;;1999.90;999.90;;;4.30;99.90;;;;;;5076029;28;20481;-76
2024/01/15 05:35:20;;;;;;;1999.90;999.90;;;4.30;99.90;;;;;;5058159;28;20024;-76
2024/01/15 05:37:46;;;;;;;1999.90;999.90;;;4.40;99.90;;;;;;5079852;28;20024;-76
2024/01/15 05:40:13;;;;;;;1999.90;999.90;;;4.40;99.90;;;;;;5084932;28;20033;-76
2024/01/15 05:42:39;;;;;;;1999.90;999.90;;;4.40;99.90;;;;;;5076038;28;20097;-76
2024/01/15 05:45:06;;;;;;;1999.90;999.90;;;4.40;99.90;;;;;;5076005;28;20078;-76
2024/01/15 05:47:31;;;;;;;1999.90;999.90;;;4.50;99.90;;;;;;5075784;28;20056;-75
2024/01/15 05:49:58;;;;;;;1999.90;999.90;;;4.50;99.90;;;;;;5075841;28;20475;-76
2024/01/15 05:52:23;;;;;;;1999.90;999.90;;;4.50;99.90;;;;;;5075758;28;20024;-75
2024/01/15 05:54:50;;;;;;;1999.90;999.90;;;4.40;99.90;;;;;;5057554;28;20025;-77
2024/01/15 05:57:16;;;;;;;1999.90;999.90;;;4.50;99.90;;;;;;5075806;28;20031;-77
2024/01/15 05:59:42;;;;;;;1999.90;999.90;;;4.50;99.90;;;;;;5073564;28;20020;-77
2024/01/15 06:02:08;;;;;;;1999.90;999.90;;;4.40;99.90;;;;;;5056427;28;20123;-76
2024/01/15 06:04:33;;;;;;;1999.90;999.90;;;4.40;99.90;;;;;;5075341;28;20187;-76
2024/01/15 06:06:59;;;;;;;1999.90;999.90;;;4.40;99.90;;;;;;5075414;28;20463;-77
2024/01/15 06:09:25;;;;;;;1999.90;999.90;;;4.40;99.90;;;;;;5076774;28;20521;-77
2024/01/15 06:11:50;;;;;;;1999.90;999.90;;;4.30;99.90;;;;;;5082673;28;20032;-75
2024/01/15 06:14:16;;;;;;;1999.90;999.90;;;4.30;99.90;;;;;;5083451;28;20044;-77
2024/01/15 06:16:42;;;;;;;1999.90;999.90;;;4.30;99.90;;;;;;5075265;28;20142;-77
2024/01/15 06:19:07;;;;;;;1999.90;999.90;;;4.30;99.90;;;;;;5053984;28;20484;-76
2024/01/15 06:21:33;;;;;;;1999.90;999.90;;;4.20;99.90;;;;;;5055139;28;20530;-77
2024/01/15 06:23:59;;;;;;;1999.90;999.90;;;4.20;99.90;;;;;;5061827;28;20111;-77
2024/01/15 06:26:24;;;;;;;1999.90;999.90;;;4.10;99.90;;;;;;5074497;28;20790;-74
2024/01/15 06:28:50;;;;;;;1999.90;999.90;;;4.10;99.90;;;;;;5074581;28;20028;-77
2024/01/15 06:31:16;;;;;;;1999.90;999.90;;;4.10;99.90;;;;;;5075084;28;20021;-75
2024/01/15 06:33:41;;;;;;;1999.90;999.90;;;4.10;99.90;;;;;;5074598;28;20028;-74
2024/01/15 06:36:07;;;;;;;1999.90;999.90;;;4.20;99.90;;;;;;5074612;28;20064;-75
2024/01/15 06:38:33;;;;;;;1999.90;999.90;;;4.20;99.90;;;;;;5079887;28;20501;-75
2024/01/15 06:40:58;;;;;;;1999.90;999.90;;;4.10;99.90;;;;;;5074119;28;20028;-77
2024/01/15 06:43:24;;;;;;;1999.90;999.90;;;4.10;99.90;;;;;;5065668;28;20037;-77
2024/01/15 06:45:50;;;;;;;1999.90;999.90;;;4.10;99.90;;;;;;5074063;28;20496;-75
2024/01/15 06:48:16;;;;;;;1999.90;999.90;;;4.10;99.90;;;;;;5085068;28;20044;-77
2024/01/15 06:50:42;;;;;;;1999.90;999.90;;;4.20;99.90;;;;;;5081462;28;20111;-77
2024/01/15 06:53:08;;;;;;;1999.90;999.90;;;4.20;99.90;;;;;;5074287;28;20036;-75
2024/01/15 06:55:34;;;;;;;1999.90;999.90;;;4.20;99.90;;;;;;5080431;28;20020;-75
2024/01/15 06:58:00;;;;;;;1999.90;999.90;;;4.20;99.90;;;;;;5086400;28;20040;-75
2024/01/15 07:00:27;;;;;;;1999.90;999.90;;;4.20;99.90;;;;;;5079235;28;20510;-75
2024/01/15 07:02:53;;;;;;;1999.90;999.90;;;4.20;99.90;;;;;;5062972;28;20571;-75
2024/01/15 07:05:20;;;;;;;1999.90;999.90;;;4.20;99.90;;;;;;5089156;28;20116;-77
2024/01/15 07:07:45;;;;;;;1999.90;999.90;;;4.20;99.90;;;;;;5074123;28;20502;-75
2024/01/15 07:10:11;;;;;;;1999.90;999.90;;;4.20;99.90;;;;;;5070875;28;20043;-75
2024/01/15 07:12:37;;;;;;;1999.90;999.90;;;4.20;99.90;;;;;;5079104;28;20016;-75
2024/01/15 07:15:04;;;;;;;1999.90;999.90;;;4.30;99.90;;;;;;5083698;28;20436;-77
2024/01/15 07:17:30;;;;;;;1999.90;999.90;;;4.20;99.90;;;;;;5088457;28;20112;-75
2024/01/15 07:19:56;;;;;;;1999.90;999.90;;;4.20;99.90;;;;;;5076209;28;20033;-76
2024/01/15 07:22:22;;;;;;;1999.90;999.90;;;4.20;99.90;;;;;;5075351;28;20051;-75
2024/01/15 07:24:47;;;;;;;1999.90;999.90;;;4.20;99.90;;;;;;5072353;28;20085;-75
2024/01/15 07:27:13;;;;;;;1999.90;999.90;;;4.20;99.90;;;;;;5070458;28;20091;-75
2024/01/15 07:29:38;;;;;;;1999.90;999.90;;;4.10;99.90;;;;;;5069907;28;20043;-75
2024/01/15 07:32:05;;;;;;;1999.90;999.90;;;4.10;99.90;;;;;;5071652;28;20036;-76
2024/01/15 07:34:31;;;;;;;1999.90;999.90;;;4.10;99.90;;;;;;5076456;28;20086;-75
2024/01/15 07:36:57;;;;;;;1999.90;999.90;;;4.10;99.90;;;;;;5071501;28;20029;-75
2024/01/15 07:39:24;;;;;;;1999.90;999.90;;;4.10;99.90;;;;;;5071233;28;20027;-75
2024/01/15 07:41:50;;;;;;;1999.90;999.90;;;4.10;99.90;;;;;;5072153;28;20037;-75
2024/01/15 07:44:16;;;;;;;1999.90;999.90;;;4.00;99.90;;;;;;5070390;28;20020;-74
2024/01/15 07:46:46;;;;;;;1999.90;999.90;;;4.00;99.90;;;;;;5071582;28;20036;-77
2024/01/15 07:49:12;;;;;;;1999.90;999.90;;;3.90;99.90;;;;;;5075067;28;20032;-75
2024/01/15 07:51:40;;;;;;;1999.90;999.90;;;3.90;99.90;;;;;;5071332;28;20032;-75
2024/01/15 07:54:06;;;;;;;1999.90;999.90;;;3.90;99.90;;;;;;5053361;28;20086;-77
2024/01/15 07:56:31;;;;;;;1999.90;999.90;;;3.90;99.90;;;;;;5062484;28;20089;-77
2024/01/15 07:58:57;;;;;;;1999.90;999.90;;;3.90;99.90;;;;;;5070941;28;20036;-76
2024/01/15 08:01:23;;;;;;;1999.90;999.90;;;3.90;99.90;;;;;;5070859;28;20033;-77
2024/01/15 08:03:48;;;;;;;1999.90;999.90;;;3.90;99.90;;;;;;5070533;28;20778;-76
2024/01/15 08:06:14;;;;;;;1999.90;999.90;;;3.90;99.90;;;;;;5064142;28;20040;-75
2024/01/15 08:08:40;;;;;;;1999.90;999.90;;;3.90;99.90;;;;;;5069852;28;20074;-77
2024/01/15 08:11:05;;;;;;;1999.90;999.90;;;3.80;99.90;;;;;;5067929;28;20036;-75
2024/01/15 08:13:31;;;;;;;1999.90;999.90;;;3.80;99.90;;;;;;5055930;28;20419;-76
2024/01/15 08:15:57;;;;;;;1999.90;999.90;;;3.90;99.90;;;;;;5082995;28;20016;-75
2024/01/15 08:18:22;;;;;;;1999.90;999.90;;;3.90;99.90;;;;;;5078623;28;20032;-77
2024/01/15 08:20:48;;;;;;;1999.90;999.90;;;3.90;99.90;;;;;;5070970;28;20048;-77
2024/01/15 08:23:13;;;;;;;1999.90;999.90;;;3.90;99.90;;;;;;5069952;28;20487;-77
2024/01/15 08:25:39;;;;;;;1999.90;999.90;;;3.90;99.90;;;;;;5064994;28;20026;-76
2024/01/15 08:28:05;;;;;;;1999.90;999.90;;;3.90;99.90;;;;;;5067086;28;20150;-76
2024/01/15 08:30:30;;;;;;;1999.90;999.90;;;4.00;99.90;;;;;;5071607;28;20777;-76
2024/01/15 08:32:56;;;;;;;1999.90;999.90;;;3.90;99.90;;;;;;5053383;28;20056;-77
2024/01/15 08:35:22;;;;;;;1999.90;999.90;;;4.00;99.90;;;;;;5071926;28;20042;-77
2024/01/15 08:37:54;;;;;;;1999.90;999.90;;;4.00;99.90;;;;;;5049342;28;20036;-77
2024/01/15 08:40:20;;;;;;;1999.90;999.90;;;4.00;99.90;;;;;;5047034;28;20554;-76
2024/01/15 08:42:46;;;;;;;1999.90;999.90;;;4.00;99.90;;;;;;5066049;28;20041;-76
2024/01/15 08:45:12;;;;;;;1999.90;999.90;;;4.10;99.90;;;;;;5050300;28;20312;-76
2024/01/15 08:47:38;;;;;;;1999.90;999.90;;;4.10;99.90;;;;;;5070373;28;20406;-77
2024/01/15 08:50:04;;;;;;;1999.90;999.90;;;4.20;99.90;;;;;;5078647;28;20028;-77
2024/01/15 08:52:30;;;;;;;1999.90;999.90;;;4.20;99.90;;;;;;5076369;28;20028;-77
2024/01/15 08:54:58;;;;;;;1999.90;999.90;;;4.30;99.90;;;;;;5071347;28;20031;-76
2024/01/15 08:57:24;;;;;;;1999.90;999.90;;;4.30;99.90;;;;;;5069605;28;20552;-77
2024/01/15 08:59:51;;;;;;;1999.90;999.90;;;4.40;99.90;;;;;;5069540;28;20036;-76
2024/01/15 09:02:16;;;;;;;1999.90;999.90;;;4.40;99.90;;;;;;5084301;28;20039;-77
2024/01/15 09:04:42;;;;;;;1999.90;999.90;;;4.50;99.90;;;;;;5069231;28;20442;-77
2024/01/15 09:07:08;;;;;;;1999.90;999.90;;;4.50;99.90;;;;;;5056898;28;20119;-76
2024/01/15 09:09:36;;;;;;;1999.90;999.90;;;4.50;99.90;;;;;;5070961;28;20039;-76
2024/01/15 09:12:02;;;;;;;1999.90;999.90;;;4.50;99.90;;;;;;5073773;28;20029;-77
2024/01/15 09:14:29;;;;;;;1999.90;999.90;;;4.60;99.90;;;;;;5055862;28;20020;-77
2024/01/15 09:16:54;;;;;;;1999.90;999.90;;;4.60;99.90;;;;;;5078155;28;20035;-76
2024/01/15 09:19:20;;;;;;;1999.90;999.90;;;4.70;99.90;;;;;;5057275;28;20383;-77
2024/01/15 09:21:45;;;;;;;1999.90;999.90;;;4.70;99.90;;;;;;5075098;28;20111;-76
2024/01/15 09:24:11;;;;;;;1999.90;999.90;;;4.70;99.90;;;;;;5058357;28;20081;-76
2024/01/15 09:26:37;;;;;;;1999.90;999.90;;;4.80;99.90;;;;;;5076353;28;20032;-77
2024/01/15 09:29:02;;;;;;;1999.90;999.90;;;4.80;99.90;;;;;;5078047;28;20050;-76
2024/01/15 09:31:28;;;;;;;1999.90;999.90;;;4.80;99.90;;;;;;5075775;28;20031;-76
2024/01/15 09:34:00;;;;;;;1999.90;999.90;;;4.80;99.90;;;;;;5074299;28;20024;-77
2024/01/15 09:36:25;;;;;;;1999.90;999.90;;;4.70;99.90;;;;;;5071812;28;20111;-77
2024/01/15 09:38:51;;;;;;;1999.90;999.90;;;4.60;99.90;;;;;;5074531;28;20581;-76
2024/01/15 09:41:17;;;;;;;1999.90;999.90;;;4.70;99.90;;;;;;5056069;28;20123;-77
2024/01/15 09:43:43;;;;;;;1999.90;999.90;;;4.70;99.90;;;;;;5072196;28;20035;-76
2024/01/15 09:46:10;;;;;;;1999.90;999.90;;;4.70;99.90;;;;;;5073351;28;20032;-76
2024/01/15 09:48:35;;;;;;;1999.90;999.90;;;4.70;99.90;;;;;;5060790;28;20036;-76
2024/01/15 09:51:06;;;;;;;1999.90;999.90;;;4.60;99.90;;;;;;5055598;28;20029;-76
2024/01/15 09:53:33;;;;;;;1999.90;999.90;;;4.60;99.90;;;;;;5073997;28;20123;-77
2024/01/15 09:55:59;;;;;;;1999.90;999.90;;;4.60;99.90;;;;;;5072371;28;20499;-76
2024/01/15 09:58:24;;;;;;;1999.90;999.90;;;4.70;99.90;;;;;;5058141;28;20078;-76
2024/01/15 10:00:51;;;;;;;1999.90;999.90;;;4.60;99.90;;;;;;5077893;28;20411;-76
2024/01/15 10:03:17;;;;;;;1999.90;999.90;;;4.70;99.90;;;;;;5074575;28;20466;-77
2024/01/15 10:05:43;;;;;;;1999.90;999.90;;;4.60;99.90;;;;;;5076762;28;20124;-76
2024/01/15 10:08:10;;;;;;;1999.90;999.90;;;4.60;99.90;;;;;;5069860;28;20095;-76
2024/01/15 10:10:37;;;;;;;1999.90;999.90;;;4.60;99.90;;;;;;5072227;28;20036;-76
2024/01/15 10:13:04;;;;;;;1999.90;999.90;;;4.70;99.90;;;;;;5070792;28;20028;-77
2024/01/15 10:15:36;;;;;;;1999.90;999.90;;;4.70;99.90;;;;;;5093549;28;20032;-77
2024/01/15 10:18:03;;;;;;;1999.90;999.90;;;4.80;99.90;;;;;;5060981;28;20031;-76
2024/01/15 10:20:28;;;;;;;1999.90;999.90;;;4.70;99.90;;;;;;5073561;28;20124;-75
2024/01/15 10:22:55;;;;;;;1999.90;999.90;;;4.70;99.90;;;;;;5055442;28;20462;-76
2024/01/15 10:25:25;;;;;;;1999.90;999.90;;;4.70;99.90;;;;;;5073101;28;20383;-76
2024/01/15 10:28:04;;;;;;;1999.90;999.90;;;4.80;99.90;;;;;;5073522;28;20078;-76
2024/01/15 10:30:31;;;;;;;1999.90;999.90;;;4.70;99.90;;;;;;5088409;28;20098;-76
2024/01/15 10:33:01;;;;;;;1999.90;999.90;;;4.70;99.90;;;;;;5079755;28;20035;-76
2024/01/15 10:35:31;;;;;;;1999.90;999.90;;;4.70;99.90;;;;;;5068765;28;20020;-76
2024/01/15 10:37:58;;;;;;;1999.90;999.90;;;4.70;99.90;;;;;;5071782;28;20651;-75
2024/01/15 10:40:24;;;;;;;1999.90;999.90;;;4.80;99.90;;;;;;5091954;28;20035;-75
2024/01/15 10:42:49;;;;;;;1999.90;999.90;;;4.70;99.90;;;;;;5089093;28;20033;-75
2024/01/15 10:45:15;;;;;;;1999.90;999.90;;;4.80;99.90;;;;;;5056179;28;20039;-76
2024/01/15 10:47:42;;;;;;;1999.90;999.90;;;4.80;99.90;;;;;;5074276;28;20509;-75
2024/01/15 10:50:09;;;;;;;1999.90;999.90;;;4.80;99.90;;;;;;5074551;28;20033;-76
2024/01/15 10:52:36;;;;;;;1999.90;999.90;;;4.80;99.90;;;;;;5073225;28;20055;-76
2024/01/15 10:55:04;;;;;;;1999.90;999.90;;;4.80;99.90;;;;;;5071047;28;20024;-75
2024/01/15 10:57:30;;;;;;;1999.90;999.90;;;4.80;99.90;;;;;;5067293;28;20017;-74
2024/01/15 10:59:56;;;;;;;1999.90;999.90;;;4.70;99.90;;;;;;5072712;28;20031;-75
2024/01/15 11:02:22;;;;;;;1999.90;999.90;;;4.70;99.90;;;;;;5074584;28;20107;-76
2024/01/15 11:04:47;;;;;;;1999.90;999.90;;;4.70;99.90;;;;;;5071606;28;20052;-75
2024/01/15 11:07:14;;;;;;;1999.90;999.90;;;4.80;99.90;;;;;;5072964;28;20487;-74
2024/01/15 11:09:39;;;;;;;1999.90;999.90;;;4.80;99.90;;;;;;5072392;28;20047;-73
2024/01/15 11:12:17;;;;;;;1999.90;999.90;;;4.70;99.90;;;;;;5072405;28;20371;-76
2024/01/15 11:14:47;;;;;;;1999.90;999.90;;;4.70;99.90;;;;;;5056843;28;20028;-76
2024/01/15 11:17:13;;;;;;;1999.90;999.90;;;4.70;99.90;;;;;;5073160;28;20027;-73
2024/01/15 11:19:46;;;;;;;1999.90;999.90;;;4.70;99.90;;;;;;5072630;28;20058;-76
2024/01/15 11:22:29;;;;;;;1999.90;999.90;;;4.60;99.90;;;;;;5071666;28;20027;-74
2024/01/15 11:24:55;;;;;;;1999.90;999.90;;;4.60;99.90;;;;;;5072499;28;20032;-76
2024/01/15 11:27:51;;;;;;;1999.90;999.90;;;4.60;99.90;;;;;;5072370;28;20501;-78
2024/01/15 11:30:17;;;;;;;1999.90;999.90;;;4.70;99.90;;;;;;5071552;28;20036;-75
2024/01/15 11:32:43;;;;;;;1999.90;999.90;;;4.70;99.90;;;;;;5080160;28;20024;-75
2024/01/15 11:35:13;;;;;;;1999.90;999.90;;;4.70;99.90;;;;;;5072289;28;20533;-76
2024/01/15 11:37:51;;;;;;;1999.90;999.90;;;4.80;99.90;;;;;;5072490;28;20028;-76
2024/01/15 11:40:35;;;;;;;1999.90;999.90;;;4.80;99.90;;;;;;5071114;28;20036;-75
2024/01/15 11:43:02;;;;;;;1999.90;999.90;;;4.80;99.90;;;;;;5071583;28;20028;-76
2024/01/15 11:45:30;;;;;;;1999.90;999.90;;;4.90;99.90;;;;;;5072388;28;20068;-75
2024/01/15 11:48:15;;;;;;;1999.90;999.90;;;5.00;99.90;;;;;;5071635;28;20495;-76
2024/01/15 11:50:45;;;;;;;1999.90;999.90;;;5.10;99.90;;;;;;5072344;28;20498;-76
2024/01/15 11:53:16;;;;;;;1999.90;999.90;;;5.20;99.90;;;;;;5068530;28;20028;-76
2024/01/15 11:55:45;;;;;;;1999.90;999.90;;;5.10;99.90;;;;;;5083142;28;20039;-76
2024/01/15 11:58:11;;;;;;;1999.90;999.90;;;5.10;99.90;;;;;;5071185;28;20025;-76
2024/01/15 12:00:41;;;;;;;1999.90;999.90;;;5.20;99.90;;;;;;5072851;28;20499;-76
2024/01/15 12:03:08;;;;;;;1999.90;999.90;;;5.30;99.90;;;;;;5062156;28;20044;-76
2024/01/15 12:05:37;;;;;;;1999.90;999.90;;;5.30;99.90;;;;;;5086674;28;20376;-76